Novi, MI

6:41 PM EST on February 11, 2016 (GMT -0500)
Whispering Meadows - S of 9, E of MB | | Change Station
CLOSE
Current Station
Personal Weather Station
Location: Novi, MI
Elevation: 853 ft
Nearby Weather Stations

Elev 853 ft 42.45 °N, 83.45 °W | Updated 39 seconds ago

Mostly Cloudy
Mostly Cloudy
14.8 °F
Feels Like 15 °F
N
0.0
Wind Variable Wind from West
Gusts 0.0 mph

Today
High -- | Low -- °F
--% Chance of Precip.
Yesterday
High -- | Low -- °F
Precip. -- in
Pressure 30.25 in
Visibility 10.0 miles
Clouds Few 3700 ft
Scattered Clouds 20000 ft
Windchill 15 °F
Dew Point 4 °F
Humidity 61%
Rainfall 0.00 in
Snow Depth Not available.
7:36 AM 6:00 PM
Waxing Crescent, 15% visible
METAR KPTK 112253Z 31004KT 10SM FEW037 SCT200 M09/M16 A3019 RMK AO2 SLP243 T10891161
Pressure 30.25 in
Visibility 10.0 miles
Clouds Few 3700 ft
Scattered Clouds 20000 ft
Windchill 15 °F
Dew Point 4 °F
Humidity 61%
Rainfall 0.00 in
Snow Depth Not available.
7:36 AM 6:00 PM
Waxing Crescent, 15% visible
METAR KPTK 112253Z 31004KT 10SM FEW037 SCT200 M09/M16 A3019 RMK AO2 SLP243 T10891161

10-Day Weather Forecast

Almanac

Astronomy

Feb. 11, 2016 Rise Set
Actual Time
Civil Twilight
Nautical Twilight
Astronomical Twilight
Moon
Length of Visible Light
Length of Day
Tomorrow will be .
, % of the Moon is Illuminated

Today's Extremes

State Highs State Lows

Community

WunderPhotos

Upload Photos

1,892,180 photos uploaded!

WunderBlog® & News

Nearby

Air Quality

  Air Quality AQ Index Pollutant
Not available.

Snow Depth

Station Depth Elevation

Earthquake Activity

City Distance Mag. Time & Date
Minimum magnitude displayed is 2.5.

Coastal Water Temperatures

Place Temperature

Stations

Nearby Weather Stations

Station Location Temp. Windchill Dew Point Humidity Wind Precip. Elev Updated Type
                   

Watches & Warnings

There are currently no watches in effect.